Carole L. Brent — WDD5964 — position and weather

sailwx.info

Track history (hours):
 
Tides and Currents Weather Stations Pressure Air Temp Water Temp Dewpoint Dewpoint Depression Visibility Wind Speed Wind Dir Waves Ship Positions

Carole L. Brent

Owner: Kirby Inland Marine, LP, Houston, TX. More information available from US FCC via Universal Licensing System and Coast Guard Vessel Documentation Center.

Last reported at 2018-May-18 10:25 UTC. Time now 2018-May-20 09:35 UTC.
Position N 30°36' W 091°18'.

Length 209 m; draft 2.7 m.

Type: . MMSI: 367166440.

Date/timePositionNaut miles runAvg speedWind from/ knotsBaromVisibWave heightAir tempDewpointWater temp
2018-May-18 10:25N 30°36' W 091°18'73 3.4
2018-May-17 13:10N 31°49' W 091°22'0 0.0
2018-May-17 12:58N 31°49' W 091°22'0 0.0
2018-May-17 12:26N 31°49' W 091°22'0 0.0
2018-May-17 12:00N 31°49' W 091°22'0 0.0
2018-May-17 11:30N 31°49' W 091°21'0 0.0
2018-May-17 10:58N 31°49' W 091°22'0 0.0
2018-May-17 10:31N 31°49' W 091°22'0 0.0
2018-May-17 09:56N 31°49' W 091°22'0 0.0
2018-May-17 09:30N 31°49' W 091°22'0 0.0
2018-May-17 09:00N 31°49' W 091°22'0 0.0
2018-May-17 08:30N 31°49' W 091°22'0 0.0
2018-May-17 07:54N 31°49' W 091°22'0 0.0
2018-May-17 07:14N 31°49' W 091°22'0 0.0
2018-May-17 06:53N 31°49' W 091°22'0 0.0
2018-May-17 06:25N 31°49' W 091°22'0 0.0
2018-May-17 06:00N 31°49' W 091°22'0 0.0
2018-May-17 05:31N 31°49' W 091°22'0 0.0
2018-May-17 05:00N 31°49' W 091°22'0 0.0
2018-May-17 04:30N 31°49' W 091°22'0 0.0
2018-May-17 03:45N 31°49' W 091°22'0 0.0
2018-May-17 02:58N 31°49' W 091°22'0 0.0
2018-May-17 02:28N 31°49' W 091°22'0 0.0
2018-May-17 02:01N 31°49' W 091°22'97 2.3
2018-May-15 08:32N 30°13' W 091°03'0 0.0
2018-May-15 08:29N 30°13' W 091°03'12 0.7
2018-May-14 14:02N 30°21' W 091°14'010.9
2018-May-14 13:59N 30°21' W 091°14'1 1.8
2018-May-14 13:28N 30°22' W 091°14'  
2018-May-11 14:01N 31°13' W 092°02'0 5.7
2018-May-11 14:00N 31°13' W 092°02'2 4.8
2018-May-11 13:29N 31°13' W 091°59'60 1.2
2018-May-09 12:49N 30°28' W 091°12'0 0.0
2018-May-09 12:26N 30°28' W 091°12'0 0.0
2018-May-09 11:57N 30°28' W 091°12'0 0.0
2018-May-09 11:30N 30°28' W 091°12'0 0.0
2018-May-09 11:00N 30°28' W 091°12'0 0.0
2018-May-09 10:30N 30°28' W 091°12'6 0.3
2018-May-08 13:48N 30°34' W 091°15'2 7.6
2018-May-08 13:29N 30°34' W 091°18'  
Track history (hours):
 
Tides and Currents Weather Stations Pressure Air Temp Water Temp Dewpoint Dewpoint Depression Visibility Wind Speed Wind Dir Waves Ship Positions

Carole L. Brent

Owner: Kirby Inland Marine, LP, Houston, TX. More information available from US FCC via Universal Licensing System and Coast Guard Vessel Documentation Center.

Last reported at 2018-May-18 10:25 UTC. Time now 2018-May-20 09:35 UTC.
Position N 30°36' W 091°18'.

Length 209 m; draft 2.7 m.

Type: . MMSI: 367166440.

Date/timePositionNaut miles runAvg speedWind from/ knotsBaromVisibWave heightAir tempDewpointWater temp
2018-May-18 10:25N 30°36' W 091°18'73 3.4
2018-May-17 13:10N 31°49' W 091°22'0 0.0
2018-May-17 12:58N 31°49' W 091°22'0 0.0
2018-May-17 12:26N 31°49' W 091°22'0 0.0
2018-May-17 12:00N 31°49' W 091°22'0 0.0
2018-May-17 11:30N 31°49' W 091°21'0 0.0
2018-May-17 10:58N 31°49' W 091°22'0 0.0
2018-May-17 10:31N 31°49' W 091°22'0 0.0
2018-May-17 09:56N 31°49' W 091°22'0 0.0
2018-May-17 09:30N 31°49' W 091°22'0 0.0
2018-May-17 09:00N 31°49' W 091°22'0 0.0
2018-May-17 08:30N 31°49' W 091°22'0 0.0
2018-May-17 07:54N 31°49' W 091°22'0 0.0
2018-May-17 07:14N 31°49' W 091°22'0 0.0
2018-May-17 06:53N 31°49' W 091°22'0 0.0
2018-May-17 06:25N 31°49' W 091°22'0 0.0
2018-May-17 06:00N 31°49' W 091°22'0 0.0
2018-May-17 05:31N 31°49' W 091°22'0 0.0
2018-May-17 05:00N 31°49' W 091°22'0 0.0
2018-May-17 04:30N 31°49' W 091°22'0 0.0
2018-May-17 03:45N 31°49' W 091°22'0 0.0
2018-May-17 02:58N 31°49' W 091°22'0 0.0
2018-May-17 02:28N 31°49' W 091°22'0 0.0
2018-May-17 02:01N 31°49' W 091°22'97 2.3
2018-May-15 08:32N 30°13' W 091°03'0 0.0
2018-May-15 08:29N 30°13' W 091°03'12 0.7
2018-May-14 14:02N 30°21' W 091°14'010.9
2018-May-14 13:59N 30°21' W 091°14'1 1.8
2018-May-14 13:28N 30°22' W 091°14'  
2018-May-11 14:01N 31°13' W 092°02'0 5.7
2018-May-11 14:00N 31°13' W 092°02'2 4.8
2018-May-11 13:29N 31°13' W 091°59'60 1.2
2018-May-09 12:49N 30°28' W 091°12'0 0.0
2018-May-09 12:26N 30°28' W 091°12'0 0.0
2018-May-09 11:57N 30°28' W 091°12'0 0.0
2018-May-09 11:30N 30°28' W 091°12'0 0.0
2018-May-09 11:00N 30°28' W 091°12'0 0.0
2018-May-09 10:30N 30°28' W 091°12'6 0.3
2018-May-08 13:48N 30°34' W 091°15'2 7.6
2018-May-08 13:29N 30°34' W 091°18'  

Dump ship's entire track history